sensor_id;sensor_type;location;lat;lon;timestamp;P1;durP1;ratioP1;P2;durP2;ratioP2
16039;SDS011;8124;48.634;8.120;2023-09-18T00:01:56;48.03;;;40.88;;
16039;SDS011;8124;48.634;8.120;2023-09-18T00:07:00;48.05;;;41.00;;
16039;SDS011;8124;48.634;8.120;2023-09-18T00:12:04;49.83;;;40.83;;
16039;SDS011;8124;48.634;8.120;2023-09-18T00:17:07;48.17;;;41.38;;
16039;SDS011;8124;48.634;8.120;2023-09-18T00:22:12;46.42;;;40.67;;
16039;SDS011;8124;48.634;8.120;2023-09-18T00:27:15;45.83;;;40.25;;
16039;SDS011;8124;48.634;8.120;2023-09-18T00:32:18;48.75;;;40.50;;
16039;SDS011;8124;48.634;8.120;2023-09-18T00:37:22;45.85;;;40.42;;
16039;SDS011;8124;48.634;8.120;2023-09-18T00:42:25;47.70;;;40.67;;
16039;SDS011;8124;48.634;8.120;2023-09-18T00:47:28;46.03;;;40.40;;
16039;SDS011;8124;48.634;8.120;2023-09-18T00:52:33;46.65;;;40.40;;
16039;SDS011;8124;48.634;8.120;2023-09-18T00:57:36;46.80;;;40.17;;
16039;SDS011;8124;48.634;8.120;2023-09-18T01:02:40;47.25;;;40.70;;
16039;SDS011;8124;48.634;8.120;2023-09-18T01:07:46;45.30;;;40.25;;
16039;SDS011;8124;48.634;8.120;2023-09-18T01:12:51;47.55;;;40.10;;
16039;SDS011;8124;48.634;8.120;2023-09-18T01:17:58;47.22;;;40.05;;
16039;SDS011;8124;48.634;8.120;2023-09-18T01:23:03;45.58;;;40.45;;
16039;SDS011;8124;48.634;8.120;2023-09-18T01:28:06;44.90;;;39.90;;
16039;SDS011;8124;48.634;8.120;2023-09-18T01:33:09;49.28;;;40.05;;
16039;SDS011;8124;48.634;8.120;2023-09-18T01:38:14;46.33;;;39.85;;
16039;SDS011;8124;48.634;8.120;2023-09-18T01:43:17;51.25;;;39.53;;
16039;SDS011;8124;48.634;8.120;2023-09-18T01:48:20;48.05;;;39.85;;
16039;SDS011;8124;48.634;8.120;2023-09-18T01:53:24;46.00;;;40.10;;
16039;SDS011;8124;48.634;8.120;2023-09-18T01:58:28;45.20;;;39.78;;
16039;SDS011;8124;48.634;8.120;2023-09-18T02:03:32;47.50;;;40.05;;
16039;SDS011;8124;48.634;8.120;2023-09-18T02:08:56;47.75;;;40.42;;
16039;SDS011;8124;48.634;8.120;2023-09-18T02:13:59;44.67;;;39.70;;
16039;SDS011;8124;48.634;8.120;2023-09-18T02:19:06;46.00;;;40.13;;
16039;SDS011;8124;48.634;8.120;2023-09-18T02:24:12;45.95;;;40.10;;
16039;SDS011;8124;48.634;8.120;2023-09-18T02:29:15;48.83;;;40.97;;
16039;SDS011;8124;48.634;8.120;2023-09-18T02:34:18;49.03;;;40.28;;
16039;SDS011;8124;48.634;8.120;2023-09-18T02:39:23;47.38;;;41.30;;
16039;SDS011;8124;48.634;8.120;2023-09-18T02:44:26;47.72;;;40.38;;
16039;SDS011;8124;48.634;8.120;2023-09-18T02:49:29;47.78;;;40.58;;
16039;SDS011;8124;48.634;8.120;2023-09-18T02:54:33;47.80;;;40.90;;
16039;SDS011;8124;48.634;8.120;2023-09-18T02:59:36;45.47;;;40.47;;
16039;SDS011;8124;48.634;8.120;2023-09-18T03:04:39;47.25;;;40.63;;
16039;SDS011;8124;48.634;8.120;2023-09-18T03:09:44;45.38;;;39.90;;
16039;SDS011;8124;48.634;8.120;2023-09-18T03:14:47;49.25;;;40.03;;
16039;SDS011;8124;48.634;8.120;2023-09-18T03:19:50;52.60;;;41.40;;
16039;SDS011;8124;48.634;8.120;2023-09-18T03:24:55;50.90;;;40.00;;
16039;SDS011;8124;48.634;8.120;2023-09-18T03:29:58;50.50;;;39.85;;
16039;SDS011;8124;48.634;8.120;2023-09-18T03:35:01;50.60;;;41.40;;
16039;SDS011;8124;48.634;8.120;2023-09-18T03:40:07;51.40;;;40.13;;
16039;SDS011;8124;48.634;8.120;2023-09-18T03:45:11;46.70;;;39.20;;
16039;SDS011;8124;48.634;8.120;2023-09-18T03:50:14;46.60;;;39.08;;
16039;SDS011;8124;48.634;8.120;2023-09-18T03:55:19;45.95;;;39.47;;
16039;SDS011;8124;48.634;8.120;2023-09-18T04:00:22;45.53;;;39.45;;
16039;SDS011;8124;48.634;8.120;2023-09-18T04:05:25;47.47;;;39.15;;
16039;SDS011;8124;48.634;8.120;2023-09-18T04:10:31;47.70;;;39.25;;
16039;SDS011;8124;48.634;8.120;2023-09-18T04:15:35;44.97;;;39.05;;
16039;SDS011;8124;48.634;8.120;2023-09-18T04:20:39;44.78;;;39.75;;
16039;SDS011;8124;48.634;8.120;2023-09-18T04:25:44;44.60;;;38.55;;
16039;SDS011;8124;48.634;8.120;2023-09-18T04:30:48;43.55;;;38.53;;
16039;SDS011;8124;48.634;8.120;2023-09-18T04:35:51;47.05;;;38.63;;
16039;SDS011;8124;48.634;8.120;2023-09-18T04:40:59;43.83;;;38.38;;
16039;SDS011;8124;48.634;8.120;2023-09-18T04:46:03;44.58;;;38.60;;
16039;SDS011;8124;48.634;8.120;2023-09-18T04:51:08;44.63;;;38.15;;
16039;SDS011;8124;48.634;8.120;2023-09-18T04:56:15;44.53;;;38.20;;
16039;SDS011;8124;48.634;8.120;2023-09-18T05:01:19;47.85;;;42.33;;
16039;SDS011;8124;48.634;8.120;2023-09-18T05:06:23;45.63;;;39.65;;
16039;SDS011;8124;48.634;8.120;2023-09-18T05:11:27;43.35;;;38.45;;
16039;SDS011;8124;48.634;8.120;2023-09-18T05:16:31;47.45;;;38.80;;
16039;SDS011;8124;48.634;8.120;2023-09-18T05:21:36;46.30;;;38.83;;
16039;SDS011;8124;48.634;8.120;2023-09-18T05:26:41;44.15;;;39.10;;
16039;SDS011;8124;48.634;8.120;2023-09-18T05:31:44;44.15;;;39.03;;
16039;SDS011;8124;48.634;8.120;2023-09-18T05:36:48;46.22;;;38.70;;
16039;SDS011;8124;48.634;8.120;2023-09-18T05:41:52;43.53;;;38.75;;
16039;SDS011;8124;48.634;8.120;2023-09-18T05:46:55;42.83;;;38.10;;
16039;SDS011;8124;48.634;8.120;2023-09-18T05:51:58;45.03;;;38.60;;
16039;SDS011;8124;48.634;8.120;2023-09-18T05:57:03;45.92;;;40.17;;
16039;SDS011;8124;48.634;8.120;2023-09-18T06:02:08;43.90;;;38.85;;
16039;SDS011;8124;48.634;8.120;2023-09-18T06:07:11;44.55;;;38.80;;
16039;SDS011;8124;48.634;8.120;2023-09-18T06:12:16;43.00;;;38.33;;
16039;SDS011;8124;48.634;8.120;2023-09-18T06:17:19;45.17;;;38.72;;
16039;SDS011;8124;48.634;8.120;2023-09-18T06:22:22;47.08;;;38.90;;
16039;SDS011;8124;48.634;8.120;2023-09-18T06:27:26;43.25;;;38.55;;
16039;SDS011;8124;48.634;8.120;2023-09-18T06:32:30;45.00;;;38.85;;
16039;SDS011;8124;48.634;8.120;2023-09-18T06:37:33;45.88;;;38.47;;
16039;SDS011;8124;48.634;8.120;2023-09-18T06:42:37;43.75;;;38.95;;
16039;SDS011;8124;48.634;8.120;2023-09-18T06:47:42;44.95;;;38.55;;
16039;SDS011;8124;48.634;8.120;2023-09-18T06:52:45;43.08;;;38.25;;
16039;SDS011;8124;48.634;8.120;2023-09-18T06:57:50;44.40;;;38.55;;
16039;SDS011;8124;48.634;8.120;2023-09-18T07:02:53;45.08;;;38.50;;
16039;SDS011;8124;48.634;8.120;2023-09-18T07:07:57;43.22;;;38.30;;
16039;SDS011;8124;48.634;8.120;2023-09-18T07:13:01;44.38;;;38.40;;
16039;SDS011;8124;48.634;8.120;2023-09-18T07:18:04;45.15;;;38.33;;
16039;SDS011;8124;48.634;8.120;2023-09-18T07:23:08;42.22;;;37.63;;
16039;SDS011;8124;48.634;8.120;2023-09-18T07:28:12;43.50;;;38.03;;
16039;SDS011;8124;48.634;8.120;2023-09-18T07:33:18;44.03;;;38.20;;
16039;SDS011;8124;48.634;8.120;2023-09-18T07:38:22;43.53;;;38.15;;
16039;SDS011;8124;48.634;8.120;2023-09-18T07:43:27;43.83;;;38.20;;
16039;SDS011;8124;48.634;8.120;2023-09-18T07:48:30;43.22;;;38.20;;
16039;SDS011;8124;48.634;8.120;2023-09-18T07:53:34;47.08;;;38.45;;
16039;SDS011;8124;48.634;8.120;2023-09-18T07:58:38;44.85;;;38.38;;
16039;SDS011;8124;48.634;8.120;2023-09-18T08:03:41;43.65;;;38.22;;
16039;SDS011;8124;48.634;8.120;2023-09-18T08:08:45;42.85;;;38.15;;
16039;SDS011;8124;48.634;8.120;2023-09-18T08:13:50;44.88;;;38.25;;
16039;SDS011;8124;48.634;8.120;2023-09-18T08:18:53;43.00;;;38.30;;
16039;SDS011;8124;48.634;8.120;2023-09-18T08:23:58;43.22;;;38.33;;
16039;SDS011;8124;48.634;8.120;2023-09-18T08:29:02;45.50;;;38.20;;
16039;SDS011;8124;48.634;8.120;2023-09-18T08:34:06;43.30;;;38.10;;
16039;SDS011;8124;48.634;8.120;2023-09-18T08:39:09;43.42;;;38.22;;
16039;SDS011;8124;48.634;8.120;2023-09-18T08:44:14;43.30;;;38.25;;
16039;SDS011;8124;48.634;8.120;2023-09-18T08:49:18;45.28;;;38.42;;
16039;SDS011;8124;48.634;8.120;2023-09-18T08:54:23;43.75;;;39.05;;
16039;SDS011;8124;48.634;8.120;2023-09-18T08:59:27;43.85;;;38.50;;
16039;SDS011;8124;48.634;8.120;2023-09-18T09:04:34;42.78;;;38.08;;
16039;SDS011;8124;48.634;8.120;2023-09-18T09:09:38;43.75;;;38.10;;
16039;SDS011;8124;48.634;8.120;2023-09-18T09:14:47;43.28;;;38.15;;
16039;SDS011;8124;48.634;8.120;2023-09-18T09:20:07;44.47;;;38.78;;
16039;SDS011;8124;48.634;8.120;2023-09-18T09:25:22;42.80;;;38.17;;
16039;SDS011;8124;48.634;8.120;2023-09-18T09:30:29;46.63;;;38.22;;
16039;SDS011;8124;48.634;8.120;2023-09-18T09:35:33;43.83;;;38.83;;
16039;SDS011;8124;48.634;8.120;2023-09-18T09:40:38;42.83;;;38.13;;
16039;SDS011;8124;48.634;8.120;2023-09-18T09:45:44;43.25;;;38.55;;
16039;SDS011;8124;48.634;8.120;2023-09-18T09:50:48;43.88;;;38.55;;
16039;SDS011;8124;48.634;8.120;2023-09-18T09:55:53;42.70;;;38.05;;
16039;SDS011;8124;48.634;8.120;2023-09-18T10:00:59;44.22;;;38.80;;
16039;SDS011;8124;48.634;8.120;2023-09-18T10:06:10;42.95;;;38.22;;
16039;SDS011;8124;48.634;8.120;2023-09-18T10:11:14;42.70;;;38.08;;
16039;SDS011;8124;48.634;8.120;2023-09-18T10:16:23;43.08;;;38.40;;
16039;SDS011;8124;48.634;8.120;2023-09-18T10:21:30;42.40;;;37.78;;
16039;SDS011;8124;48.634;8.120;2023-09-18T10:26:47;43.03;;;38.33;;
16039;SDS011;8124;48.634;8.120;2023-09-18T10:31:54;44.95;;;38.90;;
16039;SDS011;8124;48.634;8.120;2023-09-18T10:36:58;44.50;;;38.25;;
16039;SDS011;8124;48.634;8.120;2023-09-18T10:42:07;43.03;;;38.33;;
16039;SDS011;8124;48.634;8.120;2023-09-18T10:47:12;43.75;;;38.70;;
16039;SDS011;8124;48.634;8.120;2023-09-18T10:52:16;43.20;;;38.42;;
16039;SDS011;8124;48.634;8.120;2023-09-18T10:57:20;42.92;;;38.30;;
16039;SDS011;8124;48.634;8.120;2023-09-18T11:02:26;43.92;;;38.58;;
16039;SDS011;8124;48.634;8.120;2023-09-18T11:07:30;43.65;;;38.85;;
16039;SDS011;8124;48.634;8.120;2023-09-18T11:12:43;43.67;;;38.92;;
16039;SDS011;8124;48.634;8.120;2023-09-18T11:17:51;44.38;;;38.67;;
16039;SDS011;8124;48.634;8.120;2023-09-18T11:23:09;43.13;;;38.50;;
16039;SDS011;8124;48.634;8.120;2023-09-18T11:28:22;43.47;;;38.72;;
16039;SDS011;8124;48.634;8.120;2023-09-18T11:33:31;45.35;;;38.70;;
16039;SDS011;8124;48.634;8.120;2023-09-18T11:38:47;43.53;;;38.70;;
16039;SDS011;8124;48.634;8.120;2023-09-18T11:49:46;42.78;;;38.15;;
16039;SDS011;8124;48.634;8.120;2023-09-18T11:54:55;43.42;;;38.47;;
16039;SDS011;8124;48.634;8.120;2023-09-18T11:59:59;43.05;;;38.35;;
16039;SDS011;8124;48.634;8.120;2023-09-18T12:05:15;44.50;;;39.70;;
16039;SDS011;8124;48.634;8.120;2023-09-18T12:10:20;43.25;;;38.55;;
16039;SDS011;8124;48.634;8.120;2023-09-18T12:15:23;43.58;;;38.65;;
16039;SDS011;8124;48.634;8.120;2023-09-18T12:20:28;43.72;;;38.58;;
16039;SDS011;8124;48.634;8.120;2023-09-18T12:25:31;43.67;;;38.92;;
16039;SDS011;8124;48.634;8.120;2023-09-18T12:30:34;44.58;;;39.03;;
16039;SDS011;8124;48.634;8.120;2023-09-18T12:35:38;43.67;;;38.97;;
16039;SDS011;8124;48.634;8.120;2023-09-18T12:40:43;43.33;;;38.60;;
16039;SDS011;8124;48.634;8.120;2023-09-18T12:45:47;45.05;;;38.70;;
16039;SDS011;8124;48.634;8.120;2023-09-18T12:50:53;43.22;;;38.60;;
16039;SDS011;8124;48.634;8.120;2023-09-18T12:56:04;43.45;;;38.75;;
16039;SDS011;8124;48.634;8.120;2023-09-18T13:01:08;43.78;;;38.97;;
16039;SDS011;8124;48.634;8.120;2023-09-18T13:06:16;43.95;;;39.25;;
16039;SDS011;8124;48.634;8.120;2023-09-18T13:11:20;44.25;;;39.45;;
16039;SDS011;8124;48.634;8.120;2023-09-18T13:16:23;43.75;;;39.05;;
16039;SDS011;8124;48.634;8.120;2023-09-18T13:21:28;43.95;;;39.17;;
16039;SDS011;8124;48.634;8.120;2023-09-18T13:26:31;45.22;;;39.55;;
16039;SDS011;8124;48.634;8.120;2023-09-18T13:31:34;45.13;;;39.53;;
16039;SDS011;8124;48.634;8.120;2023-09-18T13:36:38;44.28;;;39.58;;
16039;SDS011;8124;48.634;8.120;2023-09-18T13:41:42;44.05;;;38.95;;
16039;SDS011;8124;48.634;8.120;2023-09-18T13:46:45;46.40;;;39.85;;
16039;SDS011;8124;48.634;8.120;2023-09-18T13:51:50;44.60;;;39.72;;
16039;SDS011;8124;48.634;8.120;2023-09-18T13:56:53;46.20;;;41.22;;
16039;SDS011;8124;48.634;8.120;2023-09-18T14:01:58;44.38;;;39.50;;
16039;SDS011;8124;48.634;8.120;2023-09-18T14:07:03;43.80;;;39.08;;
16039;SDS011;8124;48.634;8.120;2023-09-18T14:12:06;44.05;;;39.25;;
16039;SDS011;8124;48.634;8.120;2023-09-18T14:17:10;43.83;;;39.05;;
16039;SDS011;8124;48.634;8.120;2023-09-18T14:22:14;44.53;;;39.65;;
16039;SDS011;8124;48.634;8.120;2023-09-18T14:27:17;46.40;;;38.95;;
16039;SDS011;8124;48.634;8.120;2023-09-18T14:32:20;44.00;;;39.03;;
16039;SDS011;8124;48.634;8.120;2023-09-18T14:37:25;44.42;;;39.42;;
16039;SDS011;8124;48.634;8.120;2023-09-18T14:42:28;44.08;;;39.30;;
16039;SDS011;8124;48.634;8.120;2023-09-18T14:47:31;44.30;;;39.50;;
16039;SDS011;8124;48.634;8.120;2023-09-18T14:52:35;43.90;;;39.10;;
16039;SDS011;8124;48.634;8.120;2023-09-18T14:57:38;43.78;;;38.97;;
16039;SDS011;8124;48.634;8.120;2023-09-18T15:02:41;44.60;;;39.45;;
16039;SDS011;8124;48.634;8.120;2023-09-18T15:07:46;43.88;;;39.08;;
16039;SDS011;8124;48.634;8.120;2023-09-18T15:12:49;45.78;;;40.55;;
16039;SDS011;8124;48.634;8.120;2023-09-18T15:17:52;44.70;;;39.80;;
16039;SDS011;8124;48.634;8.120;2023-09-18T15:22:57;45.95;;;39.78;;
16039;SDS011;8124;48.634;8.120;2023-09-18T15:28:01;44.40;;;39.55;;
16039;SDS011;8124;48.634;8.120;2023-09-18T15:33:05;44.60;;;39.70;;
16039;SDS011;8124;48.634;8.120;2023-09-18T15:38:11;43.85;;;39.15;;
16039;SDS011;8124;48.634;8.120;2023-09-18T15:43:14;45.70;;;39.70;;
16039;SDS011;8124;48.634;8.120;2023-09-18T15:48:21;43.97;;;39.20;;
16039;SDS011;8124;48.634;8.120;2023-09-18T15:53:28;44.33;;;39.55;;
16039;SDS011;8124;48.634;8.120;2023-09-18T15:58:57;44.10;;;39.38;;
16039;SDS011;8124;48.634;8.120;2023-09-18T16:04:00;44.58;;;39.25;;
16039;SDS011;8124;48.634;8.120;2023-09-18T16:09:05;44.90;;;40.00;;
16039;SDS011;8124;48.634;8.120;2023-09-18T16:14:09;45.08;;;39.65;;
16039;SDS011;8124;48.634;8.120;2023-09-18T16:19:12;44.38;;;39.58;;
16039;SDS011;8124;48.634;8.120;2023-09-18T16:24:17;45.20;;;40.20;;
16039;SDS011;8124;48.634;8.120;2023-09-18T16:29:22;44.25;;;39.53;;
16039;SDS011;8124;48.634;8.120;2023-09-18T16:34:26;44.22;;;39.42;;
16039;SDS011;8124;48.634;8.120;2023-09-18T16:39:32;44.15;;;39.38;;
16039;SDS011;8124;48.634;8.120;2023-09-18T16:44:35;44.63;;;39.65;;
16039;SDS011;8124;48.634;8.120;2023-09-18T16:49:41;44.95;;;39.47;;
16039;SDS011;8124;48.634;8.120;2023-09-18T16:54:45;44.22;;;39.45;;
16039;SDS011;8124;48.634;8.120;2023-09-18T16:59:51;45.72;;;39.60;;
16039;SDS011;8124;48.634;8.120;2023-09-18T17:04:56;44.63;;;39.72;;
16039;SDS011;8124;48.634;8.120;2023-09-18T17:10:02;43.40;;;38.75;;
16039;SDS011;8124;48.634;8.120;2023-09-18T17:15:07;44.45;;;39.03;;
16039;SDS011;8124;48.634;8.120;2023-09-18T17:20:11;43.85;;;39.15;;
16039;SDS011;8124;48.634;8.120;2023-09-18T17:25:16;43.17;;;38.55;;
16039;SDS011;8124;48.634;8.120;2023-09-18T17:30:20;43.08;;;38.40;;
16039;SDS011;8124;48.634;8.120;2023-09-18T17:35:25;43.13;;;38.45;;
16039;SDS011;8124;48.634;8.120;2023-09-18T17:40:30;43.35;;;38.60;;
16039;SDS011;8124;48.634;8.120;2023-09-18T17:45:36;43.45;;;38.70;;
16039;SDS011;8124;48.634;8.120;2023-09-18T17:50:40;45.33;;;38.88;;
16039;SDS011;8124;48.634;8.120;2023-09-18T17:55:45;43.80;;;38.72;;
16039;SDS011;8124;48.634;8.120;2023-09-18T18:00:52;44.17;;;39.30;;
16039;SDS011;8124;48.634;8.120;2023-09-18T18:05:59;42.90;;;38.30;;
16039;SDS011;8124;48.634;8.120;2023-09-18T18:11:08;42.58;;;37.97;;
16039;SDS011;8124;48.634;8.120;2023-09-18T18:16:12;42.58;;;37.95;;
16039;SDS011;8124;48.634;8.120;2023-09-18T18:21:16;42.45;;;37.85;;
16039;SDS011;8124;48.634;8.120;2023-09-18T18:26:22;42.35;;;37.75;;
16039;SDS011;8124;48.634;8.120;2023-09-18T18:31:29;42.58;;;37.95;;
16039;SDS011;8124;48.634;8.120;2023-09-18T18:36:32;42.72;;;38.10;;
16039;SDS011;8124;48.634;8.120;2023-09-18T18:41:36;42.33;;;37.72;;
16039;SDS011;8124;48.634;8.120;2023-09-18T18:46:42;42.95;;;38.33;;
16039;SDS011;8124;48.634;8.120;2023-09-18T18:51:45;42.13;;;37.45;;
16039;SDS011;8124;48.634;8.120;2023-09-18T18:56:50;42.38;;;37.78;;
16039;SDS011;8124;48.634;8.120;2023-09-18T19:01:53;42.92;;;38.33;;
16039;SDS011;8124;48.634;8.120;2023-09-18T19:06:57;41.90;;;37.33;;
16039;SDS011;8124;48.634;8.120;2023-09-18T19:12:01;46.60;;;41.70;;
16039;SDS011;8124;48.634;8.120;2023-09-18T19:17:06;43.05;;;38.35;;
16039;SDS011;8124;48.634;8.120;2023-09-18T19:22:10;42.65;;;37.95;;
16039;SDS011;8124;48.634;8.120;2023-09-18T19:27:14;42.90;;;38.22;;
16039;SDS011;8124;48.634;8.120;2023-09-18T19:32:17;42.58;;;37.95;;
16039;SDS011;8124;48.634;8.120;2023-09-18T19:37:21;42.58;;;37.90;;
16039;SDS011;8124;48.634;8.120;2023-09-18T19:42:26;42.47;;;37.80;;
16039;SDS011;8124;48.634;8.120;2023-09-18T19:47:29;42.70;;;37.78;;
16039;SDS011;8124;48.634;8.120;2023-09-18T19:52:32;42.50;;;37.90;;
16039;SDS011;8124;48.634;8.120;2023-09-18T19:57:38;42.25;;;37.65;;
16039;SDS011;8124;48.634;8.120;2023-09-18T20:02:41;42.55;;;37.95;;
16039;SDS011;8124;48.634;8.120;2023-09-18T20:07:48;42.28;;;37.67;;
16039;SDS011;8124;48.634;8.120;2023-09-18T20:12:52;42.25;;;37.65;;
16039;SDS011;8124;48.634;8.120;2023-09-18T20:17:55;42.10;;;37.40;;
16039;SDS011;8124;48.634;8.120;2023-09-18T20:22:58;41.97;;;37.38;;
16039;SDS011;8124;48.634;8.120;2023-09-18T20:28:03;42.25;;;37.65;;
16039;SDS011;8124;48.634;8.120;2023-09-18T20:33:07;41.95;;;37.35;;
16039;SDS011;8124;48.634;8.120;2023-09-18T20:38:10;41.83;;;37.22;;
16039;SDS011;8124;48.634;8.120;2023-09-18T20:43:16;42.35;;;37.65;;
16039;SDS011;8124;48.634;8.120;2023-09-18T20:48:25;42.30;;;37.67;;
16039;SDS011;8124;48.634;8.120;2023-09-18T20:53:28;42.10;;;37.50;;
16039;SDS011;8124;48.634;8.120;2023-09-18T20:58:33;42.13;;;37.35;;
16039;SDS011;8124;48.634;8.120;2023-09-18T21:03:38;43.30;;;37.60;;
16039;SDS011;8124;48.634;8.120;2023-09-18T21:08:41;42.80;;;37.45;;
16039;SDS011;8124;48.634;8.120;2023-09-18T21:13:46;43.35;;;37.28;;
16039;SDS011;8124;48.634;8.120;2023-09-18T21:18:50;42.63;;;37.47;;
16039;SDS011;8124;48.634;8.120;2023-09-18T21:23:53;43.25;;;37.35;;
16039;SDS011;8124;48.634;8.120;2023-09-18T21:28:58;42.08;;;37.47;;
16039;SDS011;8124;48.634;8.120;2023-09-18T21:34:01;42.58;;;37.97;;
16039;SDS011;8124;48.634;8.120;2023-09-18T21:39:04;43.03;;;37.35;;
16039;SDS011;8124;48.634;8.120;2023-09-18T21:44:11;44.08;;;37.75;;
16039;SDS011;8124;48.634;8.120;2023-09-18T21:49:15;42.25;;;37.65;;
16039;SDS011;8124;48.634;8.120;2023-09-18T21:54:19;41.97;;;37.38;;
16039;SDS011;8124;48.634;8.120;2023-09-18T21:59:24;43.20;;;37.72;;
16039;SDS011;8124;48.634;8.120;2023-09-18T22:04:27;43.00;;;37.55;;
16039;SDS011;8124;48.634;8.120;2023-09-18T22:09:30;42.55;;;37.55;;
16039;SDS011;8124;48.634;8.120;2023-09-18T22:14:34;42.95;;;37.15;;
16039;SDS011;8124;48.634;8.120;2023-09-18T22:19:37;44.85;;;37.50;;
16039;SDS011;8124;48.634;8.120;2023-09-18T22:24:40;42.15;;;37.55;;
16039;SDS011;8124;48.634;8.120;2023-09-18T22:29:48;41.83;;;37.08;;
16039;SDS011;8124;48.634;8.120;2023-09-18T22:34:53;41.95;;;37.35;;
16039;SDS011;8124;48.634;8.120;2023-09-18T22:56:31;44.55;;;37.70;;
16039;SDS011;8124;48.634;8.120;2023-09-18T23:01:34;42.13;;;37.40;;
16039;SDS011;8124;48.634;8.120;2023-09-18T23:06:38;42.17;;;37.58;;
16039;SDS011;8124;48.634;8.120;2023-09-18T23:11:44;43.17;;;37.65;;
16039;SDS011;8124;48.634;8.120;2023-09-18T23:16:48;41.97;;;37.45;;
16039;SDS011;8124;48.634;8.120;2023-09-18T23:21:51;41.47;;;36.97;;
16039;SDS011;8124;48.634;8.120;2023-09-18T23:26:56;41.30;;;36.75;;
16039;SDS011;8124;48.634;8.120;2023-09-18T23:32:01;42.95;;;36.78;;
16039;SDS011;8124;48.634;8.120;2023-09-18T23:37:04;41.47;;;36.90;;
16039;SDS011;8124;48.634;8.120;2023-09-18T23:42:09;43.55;;;36.92;;
16039;SDS011;8124;48.634;8.120;2023-09-18T23:47:16;41.95;;;36.88;;
16039;SDS011;8124;48.634;8.120;2023-09-18T23:52:21;42.35;;;37.22;;
16039;SDS011;8124;48.634;8.120;2023-09-18T23:57:27;43.03;;;37.50;;
